Time,TemperatureF,DewpointF,PressureIn,WindDirection,WindDirectionDegrees,WindSpeedMPH,WindSpeedGustMPH,Humidity,HourlyPrecipIn,Conditions,Clouds,dailyrainin,SoftwareType,DateUTC
2013-02-15 00:02:00,37.0,28.0,30.00,North,0,0.0,-999.0,69,-99.99,,,-99.99,,2013-02-15 05:02:00,
2013-02-15 00:12:00,36.0,28.0,30.00,North,0,0.0,-999.0,74,-99.99,,,-99.99,,2013-02-15 05:12:00,
2013-02-15 00:22:00,36.0,28.0,30.00,North,0,0.0,-999.0,74,-99.99,,,-99.99,,2013-02-15 05:22:00,
2013-02-15 00:32:00,36.0,28.0,30.00,North,0,0.0,-999.0,74,-99.99,,,-99.99,,2013-02-15 05:32:00,
2013-02-15 00:42:00,36.0,28.0,30.00,North,0,0.0,-999.0,74,-99.99,,,-99.99,,2013-02-15 05:42:00,
2013-02-15 00:52:00,36.0,28.0,29.99,North,0,0.0,-999.0,74,-99.99,,,-99.99,,2013-02-15 05:52:00,
2013-02-15 01:02:00,36.0,28.0,29.99,North,0,0.0,-999.0,74,-99.99,,,-99.99,,2013-02-15 06:02:00,
2013-02-15 01:11:00,36.0,28.0,29.98,North,0,0.0,-999.0,74,-99.99,,,-99.99,,2013-02-15 06:11:00,
2013-02-15 01:22:00,36.0,28.0,29.98,North,0,0.0,-999.0,74,-99.99,,,-99.99,,2013-02-15 06:22:00,
2013-02-15 01:32:00,36.0,28.0,29.98,North,0,0.0,-999.0,74,-99.99,,,-99.99,,2013-02-15 06:32:00,
2013-02-15 01:42:00,36.0,28.0,29.98,North,0,0.0,-999.0,74,-99.99,,,-99.99,,2013-02-15 06:42:00,
2013-02-15 01:52:00,36.0,28.0,29.98,North,0,0.0,-999.0,74,-99.99,,,-99.99,,2013-02-15 06:52:00,
2013-02-15 02:01:00,36.0,28.0,29.98,North,0,0.0,-999.0,74,-99.99,,,-99.99,,2013-02-15 07:01:00,
2013-02-15 02:11:00,36.0,28.0,29.98,North,0,0.0,-999.0,74,-99.99,,,-99.99,,2013-02-15 07:11:00,
2013-02-15 02:21:00,36.0,28.0,29.98,North,0,0.0,-999.0,74,-99.99,,,-99.99,,2013-02-15 07:21:00,
2013-02-15 02:32:00,36.0,28.0,29.98,North,0,0.0,-999.0,74,-99.99,,,-99.99,,2013-02-15 07:32:00,
2013-02-15 02:42:00,36.0,28.0,29.98,North,0,0.0,-999.0,74,-99.99,,,-99.99,,2013-02-15 07:42:00,
2013-02-15 02:52:00,36.0,28.0,29.98,North,0,0.0,-999.0,74,-99.99,,,-99.99,,2013-02-15 07:52:00,
2013-02-15 03:01:00,36.0,28.0,29.98,North,0,0.0,-999.0,74,-99.99,,,-99.99,,2013-02-15 08:01:00,
2013-02-15 03:11:00,36.0,30.0,29.97,North,0,0.0,-999.0,80,-99.99,,,-99.99,,2013-02-15 08:11:00,
2013-02-15 03:21:00,36.0,30.0,29.97,North,0,0.0,-999.0,80,-99.99,,,-99.99,,2013-02-15 08:21:00,
2013-02-15 03:32:00,37.0,30.0,29.98,North,0,0.0,-999.0,74,-99.99,,,-99.99,,2013-02-15 08:32:00,
2013-02-15 03:42:00,37.0,30.0,29.98,North,0,0.0,-999.0,74,-99.99,,,-99.99,,2013-02-15 08:42:00,
2013-02-15 03:52:00,37.0,32.0,29.97,West,260,5.0,-999.0,80,-99.99,,,-99.99,,2013-02-15 08:52:00,
2013-02-15 04:02:00,37.0,32.0,29.97,West,260,5.0,-999.0,80,-99.99,,,-99.99,,2013-02-15 09:02:00,
2013-02-15 04:12:00,37.0,30.0,29.97,North,0,0.0,-999.0,74,-99.99,,,-99.99,,2013-02-15 09:12:00,
2013-02-15 04:22:00,37.0,30.0,29.97,North,0,0.0,-999.0,74,-99.99,,,-99.99,,2013-02-15 09:22:00,
2013-02-15 04:32:00,37.0,30.0,29.97,North,0,0.0,-999.0,74,-99.99,,,-99.99,,2013-02-15 09:32:00,
2013-02-15 04:42:00,37.0,30.0,29.97,North,0,0.0,-999.0,74,-99.99,,,-99.99,,2013-02-15 09:42:00,
2013-02-15 04:52:00,37.0,30.0,29.97,North,0,0.0,-999.0,74,-99.99,,,-99.99,,2013-02-15 09:52:00,
2013-02-15 05:01:00,37.0,30.0,29.97,North,0,0.0,-999.0,74,-99.99,,,-99.99,,2013-02-15 10:01:00,
2013-02-15 05:11:00,37.0,30.0,29.97,North,0,0.0,-999.0,74,-99.99,,,-99.99,,2013-02-15 10:11:00,
2013-02-15 05:21:00,37.0,30.0,29.97,North,0,0.0,-999.0,74,-99.99,,,-99.99,,2013-02-15 10:21:00,
2013-02-15 05:32:00,37.0,30.0,29.97,North,0,0.0,-999.0,74,-99.99,,,-99.99,,2013-02-15 10:32:00,
2013-02-15 05:42:00,37.0,30.0,29.97,North,0,0.0,-999.0,74,-99.99,,,-99.99,,2013-02-15 10:42:00,
2013-02-15 05:51:00,37.0,30.0,29.98,North,0,0.0,-999.0,74,-99.99,,,-99.99,,2013-02-15 10:51:00,
2013-02-15 06:01:00,37.0,30.0,29.98,North,0,0.0,-999.0,74,-99.99,,,-99.99,,2013-02-15 11:01:00,
2013-02-15 06:11:00,36.0,30.0,29.98,North,0,0.0,-999.0,80,-99.99,,,-99.99,,2013-02-15 11:11:00,
2013-02-15 06:23:00,36.0,30.0,29.98,North,0,0.0,-999.0,80,-99.99,,,-99.99,,2013-02-15 11:23:00,
2013-02-15 06:32:00,36.0,30.0,29.98,North,0,0.0,-999.0,80,-99.99,,,-99.99,,2013-02-15 11:32:00,
2013-02-15 06:42:00,36.0,30.0,29.98,North,0,0.0,-999.0,80,-99.99,,,-99.99,,2013-02-15 11:42:00,
2013-02-15 06:52:00,36.0,30.0,29.99,North,0,0.0,-999.0,80,-99.99,,,-99.99,,2013-02-15 11:52:00,
2013-02-15 07:02:00,36.0,30.0,29.99,North,0,0.0,-999.0,80,-99.99,,,-99.99,,2013-02-15 12:02:00,
2013-02-15 07:11:00,36.0,30.0,29.99,North,0,0.0,-999.0,80,-99.99,,,-99.99,,2013-02-15 12:11:00,
2013-02-15 07:22:00,36.0,30.0,29.99,North,0,0.0,-999.0,80,-99.99,,,-99.99,,2013-02-15 12:22:00,
2013-02-15 07:32:00,36.0,30.0,29.99,North,0,0.0,-999.0,80,-99.99,,,-99.99,,2013-02-15 12:32:00,
2013-02-15 07:42:00,36.0,30.0,29.99,North,0,0.0,-999.0,80,-99.99,,,-99.99,,2013-02-15 12:42:00,
2013-02-15 07:52:00,36.0,30.0,30.00,North,0,0.0,-999.0,80,-99.99,,,-99.99,,2013-02-15 12:52:00,
2013-02-15 08:02:00,36.0,30.0,30.00,North,0,0.0,-999.0,80,-99.99,,,-99.99,,2013-02-15 13:02:00,
2013-02-15 08:11:00,37.0,30.0,30.00,North,0,0.0,-999.0,74,-99.99,,,-99.99,,2013-02-15 13:11:00,
2013-02-15 08:22:00,37.0,30.0,30.00,North,0,0.0,-999.0,74,-99.99,,,-99.99,,2013-02-15 13:22:00,
2013-02-15 08:32:00,39.0,32.0,30.00,North,0,0.0,-999.0,75,-99.99,,,-99.99,,2013-02-15 13:32:00,
2013-02-15 08:42:00,39.0,32.0,30.00,North,0,0.0,-999.0,75,-99.99,,,-99.99,,2013-02-15 13:42:00,
2013-02-15 08:52:00,39.0,32.0,30.01,North,0,0.0,-999.0,75,-99.99,,,-99.99,,2013-02-15 13:52:00,
2013-02-15 09:01:00,39.0,32.0,30.01,North,0,0.0,-999.0,75,-99.99,,,-99.99,,2013-02-15 14:01:00,
2013-02-15 09:12:00,43.0,34.0,30.01,North,0,0.0,-999.0,70,-99.99,,,-99.99,,2013-02-15 14:12:00,
2013-02-15 09:22:00,43.0,34.0,30.01,North,0,0.0,-999.0,70,-99.99,,,-99.99,,2013-02-15 14:22:00,
2013-02-15 09:32:00,43.0,32.0,30.01,North,0,0.0,-999.0,65,-99.99,,,-99.99,,2013-02-15 14:32:00,
2013-02-15 09:42:00,43.0,32.0,30.01,North,0,0.0,-999.0,65,-99.99,,,-99.99,,2013-02-15 14:42:00,
2013-02-15 09:52:00,45.0,34.0,30.02,North,0,0.0,-999.0,65,-99.99,,,-99.99,,2013-02-15 14:52:00,
2013-02-15 10:02:00,45.0,34.0,30.02,North,0,0.0,-999.0,65,-99.99,,,-99.99,,2013-02-15 15:02:00,
2013-02-15 10:11:00,45.0,34.0,30.02,North,0,0.0,-999.0,65,-99.99,,,-99.99,,2013-02-15 15:11:00,
2013-02-15 10:22:00,46.0,34.0,30.02,North,0,0.0,-999.0,61,-99.99,,,-99.99,,2013-02-15 15:22:00,
2013-02-15 10:32:00,48.0,34.0,30.01,North,0,0.0,-999.0,57,-99.99,,,-99.99,,2013-02-15 15:32:00,
2013-02-15 10:42:00,48.0,34.0,30.01,North,0,0.0,-999.0,57,-99.99,,,-99.99,,2013-02-15 15:42:00,
2013-02-15 10:52:00,50.0,34.0,30.01,North,0,0.0,-999.0,53,-99.99,,,-99.99,,2013-02-15 15:52:00,
2013-02-15 11:02:00,50.0,34.0,30.01,North,0,0.0,-999.0,53,-99.99,,,-99.99,,2013-02-15 16:02:00,
2013-02-15 11:11:00,50.0,34.0,30.01,North,0,0.0,-999.0,53,-99.99,,,-99.99,,2013-02-15 16:11:00,
2013-02-15 11:22:00,52.0,36.0,30.01,North,0,0.0,-999.0,53,-99.99,,,-99.99,,2013-02-15 16:22:00,
2013-02-15 11:32:00,52.0,36.0,30.00,ESE,120,8.0,-999.0,53,-99.99,,,-99.99,,2013-02-15 16:32:00,
2013-02-15 11:42:00,52.0,36.0,30.00,ESE,120,8.0,-999.0,53,-99.99,,,-99.99,,2013-02-15 16:42:00,
2013-02-15 11:52:00,48.0,36.0,29.99,SE,130,7.0,-999.0,61,-99.99,,,-99.99,,2013-02-15 16:52:00,
2013-02-15 12:01:00,48.0,36.0,29.99,SE,130,7.0,-999.0,61,-99.99,,,-99.99,,2013-02-15 17:01:00,
2013-02-15 12:11:00,48.0,36.0,29.98,ESE,120,6.0,-999.0,61,-99.99,,,-99.99,,2013-02-15 17:11:00,
2013-02-15 12:21:00,48.0,36.0,29.98,ESE,120,6.0,-999.0,61,-99.99,,,-99.99,,2013-02-15 17:21:00,
2013-02-15 12:32:00,50.0,37.0,29.97,East,100,7.0,-999.0,61,-99.99,,,-99.99,,2013-02-15 17:32:00,
2013-02-15 12:42:00,50.0,37.0,29.97,East,100,7.0,-999.0,61,-99.99,,,-99.99,,2013-02-15 17:42:00,
2013-02-15 12:52:00,52.0,36.0,29.96,ESE,110,6.0,-999.0,53,-99.99,,,-99.99,,2013-02-15 17:52:00,
2013-02-15 13:02:00,52.0,36.0,29.96,ESE,110,6.0,-999.0,53,-99.99,,,-99.99,,2013-02-15 18:02:00,
2013-02-15 13:11:00,52.0,36.0,29.95,South,170,6.0,-999.0,53,-99.99,,,-99.99,,2013-02-15 18:11:00,
2013-02-15 13:22:00,52.0,36.0,29.95,South,170,6.0,-999.0,53,-99.99,,,-99.99,,2013-02-15 18:22:00,
2013-02-15 13:32:00,54.0,36.0,29.94,SSE,150,8.0,-999.0,50,-99.99,,,-99.99,,2013-02-15 18:32:00,
2013-02-15 13:42:00,54.0,36.0,29.94,SSE,150,8.0,-999.0,50,-99.99,,,-99.99,,2013-02-15 18:42:00,
2013-02-15 13:52:00,54.0,36.0,29.93,SE,140,7.0,-999.0,50,-99.99,,,-99.99,,2013-02-15 18:52:00,
2013-02-15 14:02:00,54.0,36.0,29.93,SE,140,7.0,-999.0,50,-99.99,,,-99.99,,2013-02-15 19:02:00,
2013-02-15 14:11:00,54.0,34.0,29.93,SSE,150,12.0,-999.0,46,-99.99,,,-99.99,,2013-02-15 19:11:00,
2013-02-15 14:22:00,54.0,34.0,29.93,SSE,150,12.0,-999.0,46,-99.99,,,-99.99,,2013-02-15 19:22:00,
2013-02-15 14:32:00,54.0,34.0,29.92,SE,140,9.0,-999.0,46,-99.99,,,-99.99,,2013-02-15 19:32:00,
2013-02-15 14:42:00,54.0,34.0,29.92,SE,140,9.0,-999.0,46,-99.99,,,-99.99,,2013-02-15 19:42:00,
2013-02-15 14:52:00,55.0,36.0,29.92,SE,130,6.0,-999.0,47,-99.99,,,-99.99,,2013-02-15 19:52:00,
2013-02-15 15:01:00,55.0,36.0,29.92,SE,130,6.0,-999.0,47,-99.99,,,-99.99,,2013-02-15 20:01:00,
2013-02-15 15:11:00,55.0,34.0,29.91,SSE,160,6.0,-999.0,43,-99.99,,,-99.99,,2013-02-15 20:11:00,
2013-02-15 15:22:00,55.0,34.0,29.91,SSE,160,6.0,-999.0,43,-99.99,,,-99.99,,2013-02-15 20:22:00,
2013-02-15 15:32:00,55.0,34.0,29.91,South,180,7.0,-999.0,43,-99.99,,,-99.99,,2013-02-15 20:32:00,
2013-02-15 15:42:00,55.0,34.0,29.91,South,180,7.0,-999.0,43,-99.99,,,-99.99,,2013-02-15 20:42:00,
2013-02-15 15:52:00,55.0,34.0,29.91,South,180,9.0,-999.0,43,-99.99,,,-99.99,,2013-02-15 20:52:00,
2013-02-15 16:02:00,55.0,34.0,29.91,South,180,9.0,-999.0,43,-99.99,,,-99.99,,2013-02-15 21:02:00,
2013-02-15 16:11:00,54.0,34.0,29.91,SSE,160,9.0,-999.0,46,-99.99,,,-99.99,,2013-02-15 21:11:00,
2013-02-15 16:22:00,54.0,34.0,29.91,SSE,160,9.0,-999.0,46,-99.99,,,-99.99,,2013-02-15 21:22:00,
2013-02-15 16:32:00,54.0,34.0,29.90,South,170,8.0,-999.0,46,-99.99,,,-99.99,,2013-02-15 21:32:00,
2013-02-15 16:42:00,54.0,34.0,29.90,South,170,8.0,-999.0,46,-99.99,,,-99.99,,2013-02-15 21:42:00,
2013-02-15 16:52:00,52.0,34.0,29.90,South,170,9.0,-999.0,50,-99.99,,,-99.99,,2013-02-15 21:52:00,
2013-02-15 17:02:00,52.0,34.0,29.90,South,170,9.0,-999.0,50,-99.99,,,-99.99,,2013-02-15 22:02:00,
2013-02-15 17:11:00,52.0,34.0,29.89,South,170,9.0,-999.0,50,-99.99,,,-99.99,,2013-02-15 22:11:00,
2013-02-15 17:22:00,52.0,34.0,29.89,South,170,9.0,-999.0,50,-99.99,,,-99.99,,2013-02-15 22:22:00,
2013-02-15 17:32:00,50.0,34.0,29.89,South,190,10.0,15.0,53,-99.99,,,-99.99,,2013-02-15 22:32:00,
2013-02-15 17:42:00,50.0,34.0,29.89,South,190,10.0,15.0,53,-99.99,,,-99.99,,2013-02-15 22:42:00,
2013-02-15 17:51:00,50.0,34.0,29.89,South,170,10.0,15.0,53,-99.99,,,-99.99,,2013-02-15 22:51:00,
2013-02-15 18:02:00,50.0,34.0,29.89,South,170,10.0,15.0,53,-99.99,,,-99.99,,2013-02-15 23:02:00,
2013-02-15 18:11:00,48.0,34.0,29.88,South,170,12.0,16.0,57,-99.99,,,-99.99,,2013-02-15 23:11:00,
2013-02-15 18:21:00,48.0,34.0,29.88,South,170,12.0,16.0,57,-99.99,,,-99.99,,2013-02-15 23:21:00,
2013-02-15 18:32:00,48.0,34.0,29.88,South,170,8.0,-999.0,57,-99.99,,,-99.99,,2013-02-15 23:32:00,
2013-02-15 18:42:00,48.0,34.0,29.88,South,170,8.0,-999.0,57,-99.99,,,-99.99,,2013-02-15 23:42:00,
2013-02-15 18:52:00,48.0,34.0,29.89,WNW,300,10.0,-999.0,57,-99.99,,,-99.99,,2013-02-15 23:52:00,
2013-02-15 19:02:00,48.0,34.0,29.89,WNW,300,10.0,-999.0,57,-99.99,,,-99.99,,2013-02-16 00:02:00,
2013-02-15 19:11:00,50.0,34.0,29.91,North,0,0.0,-999.0,53,-99.99,,,-99.99,,2013-02-16 00:11:00,
2013-02-15 19:22:00,50.0,34.0,29.91,North,0,0.0,-999.0,53,-99.99,,,-99.99,,2013-02-16 00:22:00,
2013-02-15 19:32:00,48.0,34.0,29.91,North,350,6.0,-999.0,57,-99.99,,,-99.99,,2013-02-16 00:32:00,
2013-02-15 19:42:00,48.0,34.0,29.91,North,350,6.0,-999.0,57,-99.99,,,-99.99,,2013-02-16 00:42:00,
2013-02-15 19:51:00,46.0,34.0,29.92,North,350,7.0,-999.0,61,-99.99,,,-99.99,,2013-02-16 00:51:00,
2013-02-15 20:02:00,46.0,34.0,29.92,North,350,7.0,-999.0,61,-99.99,,,-99.99,,2013-02-16 01:02:00,
2013-02-15 20:11:00,46.0,34.0,29.94,North,360,10.0,15.0,61,-99.99,,,-99.99,,2013-02-16 01:11:00,
2013-02-15 20:21:00,46.0,34.0,29.94,North,360,10.0,15.0,61,-99.99,,,-99.99,,2013-02-16 01:21:00,
2013-02-15 20:32:00,45.0,34.0,29.95,North,350,10.0,16.0,65,-99.99,,,-99.99,,2013-02-16 01:32:00,
2013-02-15 20:42:00,45.0,34.0,29.95,North,350,10.0,16.0,65,-99.99,,,-99.99,,2013-02-16 01:42:00,
2013-02-15 20:52:00,45.0,34.0,29.96,North,360,9.0,-999.0,65,-99.99,,,-99.99,,2013-02-16 01:52:00,
2013-02-15 21:01:00,45.0,34.0,29.96,North,360,9.0,-999.0,65,-99.99,,,-99.99,,2013-02-16 02:01:00,
2013-02-15 21:11:00,45.0,34.0,29.98,NNW,340,10.0,18.0,65,-99.99,,,-99.99,,2013-02-16 02:11:00,
2013-02-15 21:22:00,45.0,34.0,29.98,NNW,340,10.0,18.0,65,-99.99,,,-99.99,,2013-02-16 02:22:00,
2013-02-15 21:32:00,43.0,34.0,29.98,NNW,340,12.0,23.0,70,-99.99,,,-99.99,,2013-02-16 02:32:00,
2013-02-15 21:42:00,43.0,34.0,29.98,NNW,340,12.0,23.0,70,-99.99,,,-99.99,,2013-02-16 02:42:00,
2013-02-15 21:52:00,43.0,32.0,29.99,NNW,340,6.0,-999.0,65,-99.99,,,-99.99,,2013-02-16 02:52:00,
2013-02-15 22:02:00,43.0,32.0,29.99,NNW,340,6.0,-999.0,65,-99.99,,,-99.99,,2013-02-16 03:02:00,
2013-02-15 22:11:00,41.0,32.0,30.00,North,350,7.0,-999.0,70,-99.99,,,-99.99,,2013-02-16 03:11:00,
2013-02-15 22:21:00,41.0,32.0,30.00,North,350,7.0,-999.0,70,-99.99,,,-99.99,,2013-02-16 03:21:00,
2013-02-15 22:32:00,39.0,32.0,30.01,North,350,6.0,-999.0,75,-99.99,,,-99.99,,2013-02-16 03:32:00,
2013-02-15 22:42:00,39.0,32.0,30.01,North,350,6.0,-999.0,75,-99.99,,,-99.99,,2013-02-16 03:42:00,
2013-02-15 22:52:00,39.0,34.0,30.01,North,0,0.0,-999.0,80,-99.99,,,-99.99,,2013-02-16 03:52:00,
2013-02-15 23:01:00,39.0,34.0,30.01,North,0,0.0,-999.0,80,-99.99,,,-99.99,,2013-02-16 04:01:00,
2013-02-15 23:11:00,39.0,34.0,30.01,North,0,0.0,-999.0,80,-99.99,,,-99.99,,2013-02-16 04:11:00,
2013-02-15 23:21:00,39.0,34.0,30.01,North,0,0.0,-999.0,80,-99.99,,,-99.99,,2013-02-16 04:21:00,
2013-02-15 23:32:00,37.0,32.0,30.00,North,360,6.0,-999.0,80,-99.99,,,-99.99,,2013-02-16 04:32:00,
2013-02-15 23:42:00,37.0,32.0,30.00,North,360,6.0,-999.0,80,-99.99,,,-99.99,,2013-02-16 04:42:00,
2013-02-15 23:51:00,37.0,32.0,30.00,North,0,0.0,-999.0,80,-99.99,,,-99.99,,2013-02-16 04:51:00,